KTI weather

Kratie Airport
Kratie, Krachoh, Cambodia

Public forecast

Using degrees Celsius for public forecast. Weather courtesy of forecast.io.

METAR (pilot weather report)

Closest report is Phnom Penh International Airport, 90.8 nm (168.2 km) SW. Retrieved 2019/04/24 21:30 UTC (26 minutes ago):

VDPP 242130Z 18007KT 9000 SCT017 SCT040 29/24 Q1006

TAF (pilot weather forecast)

Forecast is more than 6 hours old.

Closest forecast is Phnom Penh International Airport, 90.8 nm (168.2 km) SW. Retrieved 2019/04/24 12:00 UTC (10 hours ago):

TAF VDPP 241100Z 2412/2506 14006KT 9999 SCT017 TEMPO 2412/2415 SCT015 FEW017CB